Time;durP1;ratioP1;P1;durP2;ratioP2;P2;SDS_P1;SDS_P2;PMS_P1;PMS_P2;Temp;Humidity;BMP_temperature;BMP_pressure;BME280_temperature;BME280_humidity;BME280_pressure;Samples;Min_cycle;Max_cycle;Signal;HPM_P1;HPM_P2
2023/03/30 00:01:04;;;;;;;0.80;0.17;;;;;;;-2.21;66.31;101409.47;5039448;28;20052;-76
2023/03/30 00:03:32;;;;;;;0.95;0.10;;;;;;;-2.25;66.67;101397.34;5039534;28;20048;-76
2023/03/30 00:06:04;;;;;;;1.08;0.10;;;;;;;-2.26;66.66;101390.50;5040086;28;20045;-76
2023/03/30 00:08:32;;;;;;;0.20;0.10;;;;;;;-2.29;66.69;101390.34;5040271;28;20041;-76
2023/03/30 00:11:03;;;;;;;0.88;0.10;;;;;;;-2.30;66.62;101393.72;5036896;28;20056;-76
2023/03/30 00:13:32;;;;;;;0.40;0.20;;;;;;;-2.33;66.44;101391.91;5037462;28;20461;-76
2023/03/30 00:15:59;;;;;;;1.40;0.10;;;;;;;-2.35;66.57;101395.22;5042585;28;20417;-76
2023/03/30 00:18:28;;;;;;;0.40;0.17;;;;;;;-2.38;66.57;101398.50;5037009;28;20493;-76
2023/03/30 00:20:55;;;;;;;0.65;0.20;;;;;;;-2.44;66.52;101389.69;5036158;28;20055;-76
2023/03/30 00:23:22;;;;;;;1.35;0.20;;;;;;;-2.46;66.58;101392.19;5038911;28;21093;-76
2023/03/30 00:25:49;;;;;;;3.47;0.30;;;;;;;-2.47;66.46;101392.13;5035685;28;20482;-76
2023/03/30 00:28:16;;;;;;;2.80;0.73;;;;;;;-2.50;66.62;101396.28;5034152;28;20529;-76
2023/03/30 00:30:44;;;;;;;1.05;0.20;;;;;;;-2.57;66.49;101394.25;5038515;28;20068;-77
2023/03/30 00:33:11;;;;;;;1.30;0.17;;;;;;;-2.58;66.36;101399.31;5038878;28;20049;-77
2023/03/30 00:35:38;;;;;;;1.95;0.20;;;;;;;-2.61;66.57;101402.59;5040109;28;20057;-76
2023/03/30 00:38:05;;;;;;;2.10;0.20;;;;;;;-2.66;66.52;101398.97;5040675;28;20052;-76
2023/03/30 00:40:34;;;;;;;1.52;0.20;;;;;;;-2.69;66.46;101398.81;5035774;28;20130;-76
2023/03/30 00:43:03;;;;;;;1.42;0.20;;;;;;;-2.72;66.82;101396.13;5034820;28;20044;-76
2023/03/30 00:45:31;;;;;;;1.73;0.20;;;;;;;-2.76;66.41;101395.13;5040703;28;20041;-76
2023/03/30 00:48:06;;;;;;;3.53;0.85;;;;;;;-2.80;66.36;101395.78;5037005;28;20116;-76
2023/03/30 00:50:37;;;;;;;0.98;0.85;;;;;;;-2.85;66.46;101388.69;5037078;28;20417;-76
2023/03/30 00:53:10;;;;;;;0.40;0.10;;;;;;;-2.87;66.50;101398.00;5042457;28;20575;-77
2023/03/30 00:55:40;;;;;;;0.75;0.10;;;;;;;-2.92;66.59;101389.25;5038977;28;20115;-76
2023/03/30 00:58:09;;;;;;;2.05;0.20;;;;;;;-2.95;66.16;101392.53;5040612;28;20050;-76
2023/03/30 01:00:38;;;;;;;0.20;0.20;;;;;;;-2.99;66.52;101385.50;5038192;28;20045;-77
2023/03/30 01:03:11;;;;;;;0.40;0.20;;;;;;;-3.06;66.48;101384.34;5041891;28;20053;-76
2023/03/30 01:05:41;;;;;;;0.50;0.20;;;;;;;-3.07;66.21;101389.41;5036240;28;20053;-76
2023/03/30 01:08:12;;;;;;;3.13;0.10;;;;;;;-3.10;66.55;101395.25;5041374;28;20041;-75
2023/03/30 01:10:40;;;;;;;1.20;0.20;;;;;;;-3.13;66.56;101395.13;5038825;28;20046;-76
2023/03/30 01:13:07;;;;;;;1.08;0.20;;;;;;;-3.19;66.46;101384.59;5037350;28;20055;-76
2023/03/30 01:15:41;;;;;;;1.25;0.20;;;;;;;-3.19;66.54;101384.59;5038169;28;20053;-76
2023/03/30 01:18:27;;;;;;;0.80;0.45;;;;;;;-3.23;66.64;101383.56;5035134;28;20042;-76
2023/03/30 01:21:26;;;;;;;0.65;0.20;;;;;;;-3.26;66.49;101383.44;5041516;28;20048;-76
2023/03/30 01:24:23;;;;;;;0.98;0.10;;;;;;;-3.30;66.76;101385.75;5037623;28;20055;-76
2023/03/30 01:26:54;;;;;;;0.35;0.20;;;;;;;-3.32;66.79;101382.28;5038800;28;20047;-76
2023/03/30 01:29:33;;;;;;;0.20;0.10;;;;;;;-3.36;66.47;101381.22;5036748;28;20430;-76
2023/03/30 01:32:32;;;;;;;2.85;0.30;;;;;;;-3.38;66.64;101384.53;5038857;28;20470;-76
2023/03/30 01:35:18;;;;;;;0.57;0.20;;;;;;;-3.41;66.64;101383.59;5037487;28;20057;-76
2023/03/30 01:38:30;;;;;;;0.30;0.13;;;;;;;-3.46;66.63;101390.16;5041866;28;20052;-76
2023/03/30 01:41:08;;;;;;;1.92;0.22;;;;;;;-3.49;67.01;101384.03;4977407;28;20454;-76
2023/03/30 01:43:40;;;;;;;0.30;0.20;;;;;;;-3.52;66.88;101384.75;5026696;28;20063;-77
2023/03/30 01:46:14;;;;;;;0.30;0.20;;;;;;;-3.55;66.74;101383.72;5035859;28;20052;-77
2023/03/30 01:48:45;;;;;;;1.30;0.20;;;;;;;-3.58;67.05;101378.47;5040042;28;20489;-75
2023/03/30 01:51:19;;;;;;;0.80;0.40;;;;;;;-3.61;67.27;101376.66;5038773;28;20049;-76
2023/03/30 01:53:51;;;;;;;0.20;0.10;;;;;;;-3.60;67.26;101375.84;5041392;28;20072;-76
2023/03/30 01:56:28;;;;;;;0.50;0.17;;;;;;;-3.62;67.11;101374.88;5042314;28;20124;-76
2023/03/30 01:58:58;;;;;;;0.57;0.40;;;;;;;-3.63;66.90;101381.66;5044403;28;20102;-76
2023/03/30 02:01:28;;;;;;;0.68;0.20;;;;;;;-3.63;67.05;101384.22;5044785;28;20052;-77
2023/03/30 02:03:58;;;;;;;1.70;0.15;;;;;;;-3.64;66.89;101368.84;5044979;28;20107;-76
2023/03/30 02:06:37;;;;;;;0.50;0.20;;;;;;;-3.64;67.37;101372.25;5041462;28;20305;-76
2023/03/30 02:09:06;;;;;;;0.57;0.20;;;;;;;-3.64;67.31;101373.94;5045291;28;20065;-76
2023/03/30 02:11:36;;;;;;;0.40;0.20;;;;;;;-3.67;67.52;101371.22;5037314;28;20518;-76
2023/03/30 02:14:05;;;;;;;0.60;0.30;;;;;;;-3.63;67.51;101375.69;5042931;28;20045;-76
2023/03/30 02:16:37;;;;;;;1.75;0.22;;;;;;;-3.63;67.50;101379.09;5042723;28;20045;-76
2023/03/30 02:19:05;;;;;;;0.47;0.10;;;;;;;-3.62;67.35;101387.63;5042498;28;20045;-76
2023/03/30 02:21:34;;;;;;;1.17;0.20;;;;;;;-3.62;67.44;101387.63;5041395;28;20585;-76
2023/03/30 02:24:03;;;;;;;1.00;0.20;;;;;;;-3.62;67.35;101379.97;5037582;28;20055;-76
2023/03/30 02:26:31;;;;;;;0.65;0.28;;;;;;;-3.60;67.37;101368.16;5037629;28;20049;-74
2023/03/30 02:29:00;;;;;;;1.85;0.25;;;;;;;-3.59;67.57;101372.47;5036421;28;20045;-71
2023/03/30 02:31:26;;;;;;;0.30;0.10;;;;;;;-3.58;67.53;101374.25;5036673;28;20049;-72
2023/03/30 02:34:09;;;;;;;1.85;0.28;;;;;;;-3.58;67.66;101373.38;5039008;28;20045;-71
2023/03/30 02:37:05;;;;;;;0.35;0.17;;;;;;;-3.60;67.27;101375.84;5038333;28;20085;-72
2023/03/30 02:39:44;;;;;;;0.63;0.20;;;;;;;-3.57;67.68;101377.66;5022698;28;20048;-72
2023/03/30 02:42:34;;;;;;;0.90;0.20;;;;;;;-3.57;67.60;101378.53;5037483;28;20041;-72
2023/03/30 02:45:18;;;;;;;2.25;0.30;;;;;;;-3.57;67.62;101372.56;5038206;28;20050;-72
2023/03/30 02:47:56;;;;;;;0.43;0.30;;;;;;;-3.56;68.01;101381.97;5040153;28;20508;-72
2023/03/30 02:50:33;;;;;;;0.20;0.10;;;;;;;-3.55;67.63;101378.63;5039202;28;20042;-72
2023/03/30 02:53:07;;;;;;;1.15;0.22;;;;;;;-3.56;67.97;101376.84;5039623;28;20144;-72
2023/03/30 02:55:38;;;;;;;0.30;0.20;;;;;;;-3.54;67.74;101367.59;5037760;28;20064;-72
2023/03/30 02:58:11;;;;;;;1.23;0.25;;;;;;;-3.53;67.70;101372.78;5037143;28;20063;-72
2023/03/30 03:00:44;;;;;;;1.70;0.45;;;;;;;-3.51;67.68;101376.25;5039899;28;20075;-72
2023/03/30 03:03:17;;;;;;;2.05;0.30;;;;;;;-3.50;67.67;101370.38;5040558;28;20045;-72
2023/03/30 03:05:44;;;;;;;0.20;0.20;;;;;;;-3.49;67.75;101364.47;5034135;28;20045;-72
2023/03/30 03:08:15;;;;;;;0.57;0.20;;;;;;;-3.45;67.86;101375.69;5039931;28;20049;-71
2023/03/30 03:10:42;;;;;;;0.43;0.20;;;;;;;-3.45;68.00;101371.44;5040181;28;20462;-72
2023/03/30 03:13:09;;;;;;;0.93;0.30;;;;;;;-3.43;67.92;101368.97;5038877;28;20521;-72
2023/03/30 03:15:37;;;;;;;1.80;0.17;;;;;;;-3.41;68.17;101373.38;5041787;28;20049;-71
2023/03/30 03:18:06;;;;;;;1.02;0.20;;;;;;;-3.38;68.26;101366.66;5035285;28;20103;-72
2023/03/30 03:20:33;;;;;;;0.30;0.20;;;;;;;-3.37;67.88;101366.72;5038949;28;20068;-72
2023/03/30 03:23:00;;;;;;;0.93;0.35;;;;;;;-3.34;67.96;101360.88;5040890;28;20045;-72
2023/03/30 03:25:27;;;;;;;0.68;0.13;;;;;;;-3.32;68.08;101351.63;5040608;28;20144;-72
2023/03/30 03:27:53;;;;;;;0.55;0.20;;;;;;;-3.30;68.05;101344.88;5037706;28;20418;-71
2023/03/30 03:30:20;;;;;;;1.88;0.20;;;;;;;-3.29;68.17;101351.75;5041738;28;20044;-72
2023/03/30 03:32:47;;;;;;;0.32;0.20;;;;;;;-3.26;68.20;101345.09;5041800;28;20417;-72
2023/03/30 03:35:15;;;;;;;0.40;0.20;;;;;;;-3.24;68.02;101340.09;5039160;28;20482;-72
2023/03/30 03:37:42;;;;;;;1.13;0.30;;;;;;;-3.22;68.31;101330.78;5037787;28;20040;-72
2023/03/30 03:40:10;;;;;;;0.55;0.20;;;;;;;-3.20;67.99;101326.63;5036428;28;20061;-72
2023/03/30 03:42:37;;;;;;;0.80;0.60;;;;;;;-3.18;68.71;101323.34;5040824;28;20045;-72
2023/03/30 03:45:06;;;;;;;0.43;0.25;;;;;;;-3.16;68.48;101333.63;5034828;28;20053;-72
2023/03/30 03:47:33;;;;;;;0.70;0.20;;;;;;;-3.15;68.57;101325.16;5034238;28;20060;-72
2023/03/30 03:50:02;;;;;;;0.82;0.28;;;;;;;-3.13;68.54;101331.22;5034279;28;20040;-72
2023/03/30 03:52:31;;;;;;;0.43;0.30;;;;;;;-3.12;68.34;101330.41;5036510;28;20524;-72
2023/03/30 03:54:57;;;;;;;1.77;0.22;;;;;;;-3.10;68.61;101331.38;5035634;28;20041;-72
2023/03/30 03:57:24;;;;;;;0.38;0.22;;;;;;;-3.08;68.73;101332.28;5038738;28;20060;-71
2023/03/30 03:59:52;;;;;;;2.35;0.45;;;;;;;-3.07;68.72;101331.50;5040142;28;20044;-72
2023/03/30 04:02:19;;;;;;;1.90;0.20;;;;;;;-3.05;68.52;101327.31;5039721;28;20049;-72
2023/03/30 04:04:46;;;;;;;0.20;0.10;;;;;;;-3.03;68.58;101323.16;5037828;28;20056;-72
2023/03/30 04:07:13;;;;;;;0.70;0.20;;;;;;;-3.00;68.38;101319.88;5037452;28;20045;-72
2023/03/30 04:09:41;;;;;;;1.38;0.40;;;;;;;-3.03;68.30;101310.38;5040589;28;20060;-72
2023/03/30 04:12:08;;;;;;;1.38;0.20;;;;;;;-2.98;68.61;101321.69;5040832;28;20045;-72
2023/03/30 04:14:35;;;;;;;2.47;0.20;;;;;;;-2.96;68.61;101320.09;5037292;28;20063;-72
2023/03/30 04:17:02;;;;;;;0.35;0.20;;;;;;;-2.95;68.51;101314.16;5039437;28;20049;-72
2023/03/30 04:19:30;;;;;;;0.95;0.30;;;;;;;-2.93;68.54;101321.91;5037714;28;20049;-72
2023/03/30 04:21:57;;;;;;;0.93;0.20;;;;;;;-2.92;68.50;101323.66;5037669;28;20152;-72
2023/03/30 04:24:24;;;;;;;0.77;0.35;;;;;;;-2.91;68.46;101317.72;5039373;28;20045;-72
2023/03/30 04:26:53;;;;;;;0.40;0.30;;;;;;;-2.90;68.33;101318.59;5042883;28;20053;-73
2023/03/30 04:29:20;;;;;;;1.63;0.20;;;;;;;-2.88;68.71;101317.84;5033553;28;20049;-72
2023/03/30 04:31:49;;;;;;;2.10;0.55;;;;;;;-2.87;68.56;101318.75;5035145;28;20049;-72
2023/03/30 04:34:20;;;;;;;0.57;0.20;;;;;;;-2.85;68.76;101314.56;5038190;28;20049;-72
2023/03/30 04:36:47;;;;;;;0.40;0.10;;;;;;;-2.84;68.67;101306.09;5032798;28;20468;-72
2023/03/30 04:39:17;;;;;;;2.15;0.75;;;;;;;-2.82;68.59;101309.56;5036049;28;20489;-71
2023/03/30 04:41:44;;;;;;;2.10;0.30;;;;;;;-2.80;68.41;101311.41;5037041;28;20048;-72
2023/03/30 04:44:13;;;;;;;3.10;0.40;;;;;;;-2.78;68.60;101316.59;5036263;28;20145;-71
2023/03/30 04:46:39;;;;;;;0.82;0.20;;;;;;;-2.77;68.12;101316.66;5039295;28;20052;-72
2023/03/30 04:49:06;;;;;;;0.77;0.30;;;;;;;-2.74;68.55;101324.44;5033601;28;20691;-71
2023/03/30 04:51:33;;;;;;;0.85;0.20;;;;;;;-2.72;68.18;101321.97;5038663;28;20049;-73
2023/03/30 04:54:01;;;;;;;0.77;0.15;;;;;;;-2.69;68.51;101321.25;5036883;28;20072;-74
2023/03/30 04:56:28;;;;;;;0.47;0.20;;;;;;;-2.68;68.58;101318.72;5039858;28;20056;-72
2023/03/30 04:58:54;;;;;;;1.63;0.30;;;;;;;-2.66;68.76;101312.00;5036194;28;20049;-72
2023/03/30 05:01:23;;;;;;;1.23;0.17;;;;;;;-2.65;68.35;101313.75;5036686;28;20045;-72
2023/03/30 05:03:50;;;;;;;0.25;0.20;;;;;;;-2.66;68.60;101312.00;5037394;28;20053;-72
2023/03/30 05:06:17;;;;;;;0.50;0.30;;;;;;;-2.61;68.64;101315.66;5033675;28;20579;-71
2023/03/30 05:08:44;;;;;;;0.30;0.20;;;;;;;-2.58;68.42;101308.09;5037750;28;20061;-72
2023/03/30 05:11:11;;;;;;;0.70;0.40;;;;;;;-2.57;68.37;101314.97;5040458;28;20079;-72
2023/03/30 05:13:39;;;;;;;2.05;0.20;;;;;;;-2.55;68.44;101309.94;5038416;28;20061;-72
2023/03/30 05:16:07;;;;;;;2.05;0.20;;;;;;;-2.54;68.74;101307.41;5038501;28;20060;-72
2023/03/30 05:18:35;;;;;;;0.85;0.20;;;;;;;-2.53;68.56;101316.84;5035212;28;20049;-72
2023/03/30 05:21:02;;;;;;;0.40;0.20;;;;;;;-2.51;68.61;101317.78;5038325;28;20048;-71
2023/03/30 05:23:29;;;;;;;1.02;0.20;;;;;;;-2.47;68.42;101325.63;5035579;28;20052;-71
2023/03/30 05:25:55;;;;;;;1.50;0.30;;;;;;;-2.44;68.44;101318.06;5035420;28;20064;-72
2023/03/30 05:28:22;;;;;;;1.10;0.30;;;;;;;-2.44;68.66;101318.06;5036026;28;20049;-72
2023/03/30 05:30:53;;;;;;;2.70;0.47;;;;;;;-2.41;68.51;101311.38;5038795;28;20412;-73
2023/03/30 05:33:20;;;;;;;2.05;0.20;;;;;;;-2.39;68.39;101306.31;5039770;28;20052;-72
2023/03/30 05:35:49;;;;;;;0.50;0.20;;;;;;;-2.35;68.53;101293.72;5037985;28;20061;-74
2023/03/30 05:38:16;;;;;;;2.40;0.50;;;;;;;-2.33;68.43;101296.38;5042659;28;20059;-74
2023/03/30 05:40:43;;;;;;;0.30;0.20;;;;;;;-2.32;68.16;101291.31;5038291;28;20050;-74
2023/03/30 05:43:10;;;;;;;0.93;0.20;;;;;;;-2.33;68.17;101288.69;5038768;28;20042;-74
2023/03/30 05:45:37;;;;;;;1.50;0.30;;;;;;;-2.28;68.57;101289.75;5037974;28;20732;-73
2023/03/30 05:48:05;;;;;;;0.50;0.50;;;;;;;-2.27;68.56;101292.38;5040016;28;20048;-73
2023/03/30 05:50:32;;;;;;;0.77;0.20;;;;;;;-2.23;68.08;101295.94;5039722;28;20049;-73
2023/03/30 05:53:00;;;;;;;0.38;0.35;;;;;;;-2.19;68.19;101300.38;5043996;28;20041;-74
2023/03/30 05:55:27;;;;;;;0.20;0.20;;;;;;;-2.17;68.57;101297.88;5040993;28;20486;-74
2023/03/30 05:57:55;;;;;;;0.40;0.28;;;;;;;-2.16;68.32;101300.50;5038608;28;20056;-74
2023/03/30 06:00:23;;;;;;;1.38;0.20;;;;;;;-2.14;68.43;101288.63;5040163;28;20106;-74
2023/03/30 06:02:50;;;;;;;1.50;0.20;;;;;;;-2.13;68.07;101289.53;5035704;28;20122;-74
2023/03/30 06:05:17;;;;;;;0.70;0.20;;;;;;;-2.06;67.96;101291.50;5037150;28;20052;-74
2023/03/30 06:07:45;;;;;;;0.85;0.20;;;;;;;-2.03;68.29;101292.50;5036523;28;20052;-74
2023/03/30 06:10:13;;;;;;;4.32;0.20;;;;;;;-1.99;68.40;101292.63;5040233;28;20094;-74
2023/03/30 06:12:40;;;;;;;0.30;0.20;;;;;;;-1.97;68.04;101288.44;5043496;28;20044;-73
2023/03/30 06:15:08;;;;;;;1.45;0.30;;;;;;;-1.94;68.36;101288.56;5025105;28;20041;-68
2023/03/30 06:17:35;;;;;;;0.70;0.28;;;;;;;-1.92;67.99;101290.38;5039007;28;20270;-68
2023/03/30 06:20:07;;;;;;;0.30;0.10;;;;;;;-1.90;68.24;101282.78;5039271;28;20467;-69
2023/03/30 06:22:34;;;;;;;0.30;0.20;;;;;;;-1.87;68.34;101282.91;5040970;28;20127;-70
2023/03/30 06:25:01;;;;;;;1.83;0.20;;;;;;;-1.84;68.11;101283.03;5039524;28;20044;-69
2023/03/30 06:27:31;;;;;;;1.45;0.25;;;;;;;-1.80;67.94;101279.75;5040427;28;20041;-75
2023/03/30 06:29:58;;;;;;;0.20;0.10;;;;;;;-1.77;67.65;101274.75;5039101;28;20404;-74
2023/03/30 06:32:25;;;;;;;1.85;0.30;;;;;;;-1.73;67.52;101279.19;5040961;28;20049;-69
2023/03/30 06:34:53;;;;;;;1.35;0.20;;;;;;;-1.71;67.12;101269.84;5036068;28;20064;-67
2023/03/30 06:37:20;;;;;;;1.20;0.20;;;;;;;-1.69;67.71;101273.38;5038149;28;20654;-69
2023/03/30 06:39:47;;;;;;;0.30;0.20;;;;;;;-1.66;67.77;101278.59;5035862;28;20057;-69
2023/03/30 06:42:13;;;;;;;1.27;0.17;;;;;;;-1.63;67.87;101272.72;5037835;28;20508;-70
2023/03/30 06:44:42;;;;;;;2.47;0.20;;;;;;;-1.59;67.66;101272.91;5043626;28;20078;-69
2023/03/30 06:47:09;;;;;;;1.13;0.20;;;;;;;-1.54;67.53;101274.78;5039931;28;20046;-70
2023/03/30 06:49:36;;;;;;;0.30;0.20;;;;;;;-1.51;67.99;101274.88;5038833;28;20049;-72
2023/03/30 06:52:02;;;;;;;0.28;0.20;;;;;;;-1.47;67.99;101269.09;5038268;28;20568;-70
2023/03/30 06:54:29;;;;;;;0.60;0.20;;;;;;;-1.43;67.49;101276.94;5041223;28;20052;-69
2023/03/30 06:56:56;;;;;;;1.55;0.43;;;;;;;-1.39;67.06;101272.81;5038807;28;20068;-71
2023/03/30 06:59:23;;;;;;;2.13;0.30;;;;;;;-1.33;67.61;101277.31;5039051;28;20498;-69
2023/03/30 07:01:51;;;;;;;5.88;0.35;;;;;;;-1.27;67.16;101274.97;5038797;28;20520;-70
2023/03/30 07:04:18;;;;;;;3.17;0.17;;;;;;;-1.23;67.05;101280.25;5039632;28;20045;-70
2023/03/30 07:06:45;;;;;;;2.92;0.30;;;;;;;-1.19;67.19;101271.00;5037688;28;20069;-70
2023/03/30 07:09:12;;;;;;;0.25;0.20;;;;;;;-1.13;67.30;101277.22;5037960;28;20497;-71
2023/03/30 07:11:39;;;;;;;0.25;0.10;;;;;;;-1.06;66.65;101280.00;5035162;28;20453;-70
2023/03/30 07:14:08;;;;;;;0.35;0.20;;;;;;;-1.01;66.89;101274.22;5035545;28;20056;-71
2023/03/30 07:16:37;;;;;;;0.75;0.17;;;;;;;-0.94;66.67;101283.00;5040255;28;20179;-70
2023/03/30 07:19:05;;;;;;;0.55;0.20;;;;;;;-0.88;66.92;101282.34;5041520;28;20060;-70
2023/03/30 07:21:32;;;;;;;0.30;0.30;;;;;;;-0.82;66.31;101283.47;5042429;28;20049;-72
2023/03/30 07:24:00;;;;;;;0.88;0.20;;;;;;;-0.76;66.60;101278.56;5039346;28;20048;-70
2023/03/30 07:26:28;;;;;;;0.17;0.17;;;;;;;-0.70;65.99;101277.91;5039233;28;20075;-70
2023/03/30 07:28:55;;;;;;;3.72;1.40;;;;;;;-0.63;66.33;101273.84;5039034;28;20050;-71
2023/03/30 07:31:22;;;;;;;0.68;0.20;;;;;;;-0.55;65.95;101277.56;5041139;28;20049;-70
2023/03/30 07:33:49;;;;;;;0.38;0.20;;;;;;;-0.52;65.91;101268.25;5039760;28;20091;-70
2023/03/30 07:36:17;;;;;;;1.48;0.30;;;;;;;-0.44;65.98;101265.97;5039528;28;20045;-70
2023/03/30 07:38:44;;;;;;;0.80;0.17;;;;;;;-0.39;65.22;101256.75;5039138;28;20405;-70
2023/03/30 07:41:13;;;;;;;1.30;0.20;;;;;;;-0.33;65.49;101258.63;5036942;28;20398;-70
2023/03/30 07:43:40;;;;;;;0.20;0.20;;;;;;;-0.28;65.64;101264.81;5037025;28;20059;-70
2023/03/30 07:46:08;;;;;;;0.73;0.20;;;;;;;-0.22;65.04;101266.72;5036703;28;20698;-70
2023/03/30 07:48:35;;;;;;;0.20;0.20;;;;;;;-0.18;64.69;101263.41;5039241;28;20442;-71
2023/03/30 07:51:03;;;;;;;0.57;0.20;;;;;;;-0.14;63.73;101266.13;5040054;28;20559;-70
2023/03/30 07:53:32;;;;;;;3.47;0.28;;;;;;;-0.12;63.24;101254.19;5040766;28;20055;-70
2023/03/30 07:55:59;;;;;;;0.95;0.20;;;;;;;-0.07;62.98;101256.94;5039564;28;20053;-72
2023/03/30 07:58:27;;;;;;;1.55;0.70;;;;;;;-0.01;62.64;101257.13;5040796;28;20053;-70
2023/03/30 08:00:55;;;;;;;0.38;0.25;;;;;;;0.04;62.75;101257.28;5041093;28;20068;-71
2023/03/30 08:03:22;;;;;;;0.35;0.13;;;;;;;0.09;62.67;101263.44;5039178;28;20429;-70
2023/03/30 08:05:54;;;;;;;0.28;0.17;;;;;;;0.14;63.10;101267.91;5041629;28;20057;-69
2023/03/30 08:08:21;;;;;;;0.90;0.10;;;;;;;0.20;62.39;101270.66;5034492;28;20051;-69
2023/03/30 08:10:50;;;;;;;0.20;0.15;;;;;;;0.25;62.73;101257.06;5039694;28;20128;-70
2023/03/30 08:13:17;;;;;;;0.20;0.20;;;;;;;0.29;62.35;101257.22;5040294;28;20452;-71
2023/03/30 08:15:44;;;;;;;0.50;0.25;;;;;;;0.33;61.88;101260.75;5034294;28;20413;-69
2023/03/30 08:18:11;;;;;;;0.60;0.25;;;;;;;0.38;61.58;101261.78;5040912;28;20041;-71
2023/03/30 08:20:40;;;;;;;0.20;0.20;;;;;;;0.43;62.26;101255.09;5035632;28;20508;-70
2023/03/30 08:23:08;;;;;;;0.35;0.20;;;;;;;0.50;62.30;101253.56;5035659;28;20155;-71
2023/03/30 08:25:35;;;;;;;1.85;0.20;;;;;;;0.56;62.15;101256.31;5039411;28;20060;-70
2023/03/30 08:28:04;;;;;;;0.50;0.20;;;;;;;0.62;62.34;101262.50;5016734;28;20048;-71
2023/03/30 08:30:32;;;;;;;0.30;0.20;;;;;;;0.65;61.73;101260.03;5040184;28;20073;-70
2023/03/30 08:32:59;;;;;;;2.85;0.20;;;;;;;0.70;62.35;101265.31;5035584;28;20056;-70
2023/03/30 08:35:26;;;;;;;0.47;0.30;;;;;;;0.74;61.15;101251.72;5035937;28;20052;-70
2023/03/30 08:37:53;;;;;;;0.45;0.22;;;;;;;0.78;61.62;101253.53;5034687;28;20508;-70
2023/03/30 08:40:21;;;;;;;0.20;0.20;;;;;;;0.82;61.45;101255.38;5036457;28;20053;-71
2023/03/30 08:43:21;;;;;;;2.10;0.20;;;;;;;0.86;61.51;101246.94;5036979;28;20607;-70
2023/03/30 08:45:50;;;;;;;0.20;0.20;;;;;;;0.88;61.84;101258.16;5039451;28;20395;-71
2023/03/30 08:48:20;;;;;;;1.88;0.17;;;;;;;0.92;61.64;101255.66;5037576;28;20409;-70
2023/03/30 08:50:55;;;;;;;0.20;0.20;;;;;;;0.97;61.00;101259.19;5037000;28;20509;-69
2023/03/30 08:53:22;;;;;;;0.30;0.10;;;;;;;0.98;61.74;101251.53;5043674;28;20053;-70
2023/03/30 08:55:53;;;;;;;2.03;0.20;;;;;;;1.06;60.67;101255.22;5037562;28;20052;-71
2023/03/30 08:58:30;;;;;;;0.85;0.20;;;;;;;1.11;61.57;101255.31;5031215;28;20533;-70
2023/03/30 09:01:08;;;;;;;0.60;0.30;;;;;;;1.19;61.17;101260.69;5038363;28;20282;-70
2023/03/30 09:03:42;;;;;;;0.10;0.10;;;;;;;1.23;61.18;101257.38;5036774;28;20049;-73
2023/03/30 09:06:19;;;;;;;1.50;0.20;;;;;;;1.26;60.73;101252.31;5045295;28;20055;-74
2023/03/30 09:08:47;;;;;;;0.20;0.20;;;;;;;1.29;60.74;101248.13;5036927;28;20041;-74
2023/03/30 09:11:21;;;;;;;0.40;0.20;;;;;;;1.32;59.72;101243.03;5039497;28;20152;-74
2023/03/30 09:13:50;;;;;;;0.90;0.20;;;;;;;1.35;60.96;101247.41;5042448;28;20485;-73
2023/03/30 09:16:28;;;;;;;2.47;0.20;;;;;;;1.41;60.25;101247.56;5039730;28;20728;-75
2023/03/30 09:18:58;;;;;;;0.38;0.20;;;;;;;1.46;60.13;101245.13;5042864;28;20128;-76
2023/03/30 09:21:29;;;;;;;0.50;0.20;;;;;;;1.49;60.43;101240.06;5039049;28;20073;-74
2023/03/30 09:23:57;;;;;;;2.42;0.30;;;;;;;1.51;60.33;101239.25;5041955;28;20131;-73
2023/03/30 09:26:33;;;;;;;0.20;0.20;;;;;;;1.52;60.29;101238.41;5042047;28;20052;-74
2023/03/30 09:29:04;;;;;;;0.32;0.22;;;;;;;1.55;60.84;101238.50;5039105;28;20527;-75
2023/03/30 09:31:38;;;;;;;1.77;0.20;;;;;;;1.60;60.55;101227.47;5044943;28;20041;-76
2023/03/30 09:34:14;;;;;;;0.22;0.20;;;;;;;1.65;60.44;101231.00;5039548;28;20060;-76
2023/03/30 09:36:49;;;;;;;1.48;0.20;;;;;;;1.69;60.66;101232.84;5041304;28;20517;-75
2023/03/30 09:39:19;;;;;;;0.22;0.10;;;;;;;1.73;59.88;101232.06;5042020;28;20132;-76
2023/03/30 09:41:57;;;;;;;1.75;0.20;;;;;;;1.75;60.32;101222.69;5043578;28;20482;-75
2023/03/30 09:44:33;;;;;;;1.10;0.22;;;;;;;1.68;60.15;101208.78;5043776;28;20053;-76
2023/03/30 09:47:02;;;;;;;0.65;0.20;;;;;;;1.76;59.49;101203.81;5040965;28;20147;-76
2023/03/30 09:49:37;;;;;;;0.60;0.20;;;;;;;1.85;59.30;101206.63;5039736;28;20042;-73
2023/03/30 09:52:07;;;;;;;0.25;0.15;;;;;;;1.90;60.28;101206.72;5044458;28;20045;-73
2023/03/30 09:54:38;;;;;;;0.32;0.28;;;;;;;1.94;59.80;101203.41;5041842;28;20057;-74
2023/03/30 09:57:05;;;;;;;0.50;0.20;;;;;;;1.98;59.60;101205.19;5039571;28;20176;-74
2023/03/30 09:59:35;;;;;;;0.77;0.20;;;;;;;2.00;59.75;101194.09;5039214;28;20326;-74
2023/03/30 10:02:20;;;;;;;0.65;0.20;;;;;;;2.05;59.24;101196.78;5040240;28;20449;-74
2023/03/30 10:05:01;;;;;;;0.40;0.20;;;;;;;2.09;59.18;101192.56;5040100;28;20045;-73
2023/03/30 10:07:32;;;;;;;0.40;0.20;;;;;;;2.12;59.36;101192.63;5035570;28;20564;-74
2023/03/30 10:10:02;;;;;;;1.95;0.20;;;;;;;2.09;59.60;101188.28;5043084;28;20056;-73
2023/03/30 10:12:30;;;;;;;0.35;0.20;;;;;;;2.12;58.86;101192.63;5041224;28;20128;-74
2023/03/30 10:15:00;;;;;;;0.38;0.20;;;;;;;2.10;58.10;101195.16;5036466;28;20057;-74
2023/03/30 10:17:29;;;;;;;0.28;0.17;;;;;;;2.08;58.68;101190.81;5037359;28;20506;-74
2023/03/30 10:20:15;;;;;;;1.13;0.20;;;;;;;2.06;58.65;101201.09;5042150;28;20051;-74
2023/03/30 10:22:49;;;;;;;;;;;;;;;2.04;58.62;101210.50;5044991;28;20421;-73
2023/03/30 10:25:20;;;;;;;0.45;0.30;;;;;;;2.04;58.75;101197.59;5039807;28;19925;-73
2023/03/30 10:27:49;;;;;;;1.67;0.20;;;;;;;1.99;58.83;101176.91;5040177;28;20052;-73
2023/03/30 10:30:20;;;;;;;2.05;0.30;;;;;;;2.09;58.46;101188.28;5041081;28;20056;-74
2023/03/30 10:32:48;;;;;;;0.30;0.20;;;;;;;2.12;58.70;101169.44;5039196;28;20132;-73
2023/03/30 10:35:20;;;;;;;0.30;0.20;;;;;;;2.17;58.05;101175.56;5039358;28;20460;-73
2023/03/30 10:37:50;;;;;;;0.80;0.20;;;;;;;2.20;58.30;101178.22;5039678;28;20051;-74
2023/03/30 10:40:21;;;;;;;0.30;0.20;;;;;;;2.22;58.48;101181.69;5038693;28;20049;-73
2023/03/30 10:42:51;;;;;;;0.47;0.47;;;;;;;2.22;57.79;101177.41;5037718;28;20444;-73
2023/03/30 10:45:22;;;;;;;0.63;0.20;;;;;;;2.24;58.00;101174.84;5039845;28;20045;-73
2023/03/30 10:48:05;;;;;;;0.90;0.20;;;;;;;2.20;58.11;101165.34;5038616;28;20052;-73
2023/03/30 10:50:40;;;;;;;0.75;0.20;;;;;;;2.28;57.59;101179.25;5040217;28;20045;-74
2023/03/30 10:53:26;;;;;;;1.55;0.30;;;;;;;2.27;57.40;101182.66;5034610;28;20118;-70
2023/03/30 10:56:02;;;;;;;3.50;0.20;;;;;;;2.24;57.59;101180.00;5037220;28;20801;-71
2023/03/30 10:58:40;;;;;;;0.75;0.20;;;;;;;2.18;57.78;101183.31;5036179;28;20110;-71
2023/03/30 11:01:16;;;;;;;0.30;0.20;;;;;;;2.15;58.33;101182.41;5036207;28;20405;-74
2023/03/30 11:03:47;;;;;;;1.05;0.20;;;;;;;2.15;58.68;101177.25;5037461;28;20045;-72
2023/03/30 11:06:21;;;;;;;0.95;0.40;;;;;;;2.16;58.32;101171.25;5034663;28;20045;-76
2023/03/30 11:08:51;;;;;;;0.75;0.30;;;;;;;2.19;58.25;101179.03;5040147;28;20111;-72
2023/03/30 11:11:22;;;;;;;0.13;0.10;;;;;;;2.20;58.42;101179.09;5037222;28;20053;-75
2023/03/30 11:13:54;;;;;;;0.60;0.17;;;;;;;2.24;58.19;101180.00;5039569;28;20049;-73
2023/03/30 11:16:25;;;;;;;1.05;0.30;;;;;;;2.27;57.82;101180.06;5039726;28;20132;-74
2023/03/30 11:18:58;;;;;;;1.70;0.20;;;;;;;2.29;58.63;101173.25;5037396;28;20072;-74
2023/03/30 11:21:31;;;;;;;0.17;0.17;;;;;;;2.30;57.98;101174.97;5038595;28;20417;-76
2023/03/30 11:24:02;;;;;;;0.40;0.20;;;;;;;2.32;58.21;101175.91;5044497;28;20061;-74
2023/03/30 11:26:37;;;;;;;2.05;0.13;;;;;;;2.35;58.04;101167.38;5038602;28;20444;-74
2023/03/30 11:29:18;;;;;;;0.45;0.40;;;;;;;2.33;58.99;101158.72;5037241;28;20055;-72
2023/03/30 11:31:53;;;;;;;0.43;0.20;;;;;;;2.29;57.91;101160.38;5038018;28;20051;-72
2023/03/30 11:34:30;;;;;;;1.77;0.20;;;;;;;2.30;58.91;101163.81;5037123;28;20042;-73
2023/03/30 11:37:07;;;;;;;3.67;0.20;;;;;;;2.28;58.49;101152.59;5036564;28;20045;-74
2023/03/30 11:39:36;;;;;;;0.28;0.20;;;;;;;2.28;58.15;101156.06;5042620;28;20144;-75
2023/03/30 11:42:15;;;;;;;0.30;0.25;;;;;;;2.24;58.28;101149.09;5038220;28;20043;-75
2023/03/30 11:44:42;;;;;;;0.43;0.20;;;;;;;2.21;57.78;101149.03;5039070;28;20045;-75